sensor_id;sensor_type;location;lat;lon;timestamp;pressure;altitude;pressure_sealevel;temperature;humidity
9935;BME280;5006;41.828;23.478;2023-02-21T00:00:51;90626.03;;;12.72;40.78
9935;BME280;5006;41.828;23.478;2023-02-21T00:02:13;90628.69;;;12.79;40.73
9935;BME280;5006;41.828;23.478;2023-02-21T00:03:36;90629.25;;;12.39;41.06
9935;BME280;5006;41.828;23.478;2023-02-21T00:05:00;90626.81;;;12.66;40.90
9935;BME280;5006;41.828;23.478;2023-02-21T00:06:23;90628.59;;;13.07;40.72
9935;BME280;5006;41.828;23.478;2023-02-21T00:07:46;90617.72;;;12.35;41.34
9935;BME280;5006;41.828;23.478;2023-02-21T00:09:09;90620.50;;;11.51;43.08
9935;BME280;5006;41.828;23.478;2023-02-21T00:10:33;90631.97;;;11.06;43.57
9935;BME280;5006;41.828;23.478;2023-02-21T00:11:56;90621.09;;;12.57;41.46
9935;BME280;5006;41.828;23.478;2023-02-21T00:13:20;90622.03;;;11.28;42.66
9935;BME280;5006;41.828;23.478;2023-02-21T00:14:42;90623.88;;;10.92;44.39
9935;BME280;5006;41.828;23.478;2023-02-21T00:16:06;90620.00;;;10.72;44.85
9935;BME280;5006;41.828;23.478;2023-02-21T00:17:29;90619.63;;;10.67;44.48
9935;BME280;5006;41.828;23.478;2023-02-21T00:18:52;90607.06;;;11.16;44.34
9935;BME280;5006;41.828;23.478;2023-02-21T00:20:15;90602.84;;;11.96;43.18
9935;BME280;5006;41.828;23.478;2023-02-21T00:21:38;90608.94;;;12.17;42.40
9935;BME280;5006;41.828;23.478;2023-02-21T00:23:01;90608.84;;;12.42;41.76
9935;BME280;5006;41.828;23.478;2023-02-21T00:24:24;90613.22;;;11.87;42.45
9935;BME280;5006;41.828;23.478;2023-02-21T00:25:49;90622.19;;;12.73;40.78
9935;BME280;5006;41.828;23.478;2023-02-21T00:27:12;90608.91;;;12.31;41.93
9935;BME280;5006;41.828;23.478;2023-02-21T00:28:35;90623.78;;;10.58;44.36
9935;BME280;5006;41.828;23.478;2023-02-21T00:29:58;90628.50;;;12.21;42.54
9935;BME280;5006;41.828;23.478;2023-02-21T00:31:20;90630.50;;;11.68;42.99
9935;BME280;5006;41.828;23.478;2023-02-21T00:32:43;90629.69;;;12.06;42.64
9935;BME280;5006;41.828;23.478;2023-02-21T00:34:07;90623.22;;;11.79;42.90
9935;BME280;5006;41.828;23.478;2023-02-21T00:35:31;90625.16;;;11.58;43.17
9935;BME280;5006;41.828;23.478;2023-02-21T00:36:53;90621.13;;;13.32;40.54
9935;BME280;5006;41.828;23.478;2023-02-21T00:38:16;90618.44;;;13.79;39.04
9935;BME280;5006;41.828;23.478;2023-02-21T00:39:39;90626.69;;;13.62;39.12
9935;BME280;5006;41.828;23.478;2023-02-21T00:41:04;90615.94;;;13.00;39.98
9935;BME280;5006;41.828;23.478;2023-02-21T00:42:27;90622.53;;;12.82;40.65
9935;BME280;5006;41.828;23.478;2023-02-21T00:43:50;90618.78;;;12.59;41.29
9935;BME280;5006;41.828;23.478;2023-02-21T00:45:13;90626.28;;;13.02;40.58
9935;BME280;5006;41.828;23.478;2023-02-21T00:46:36;90614.38;;;11.51;42.55
9935;BME280;5006;41.828;23.478;2023-02-21T00:47:59;90617.72;;;10.78;44.02
9935;BME280;5006;41.828;23.478;2023-02-21T00:49:22;90624.38;;;11.57;43.04
9935;BME280;5006;41.828;23.478;2023-02-21T00:50:45;90619.34;;;11.17;43.22
9935;BME280;5006;41.828;23.478;2023-02-21T00:52:08;90612.84;;;11.39;42.59
9935;BME280;5006;41.828;23.478;2023-02-21T00:53:31;90609.41;;;11.70;42.25
9935;BME280;5006;41.828;23.478;2023-02-21T00:54:55;90617.34;;;12.33;41.41
9935;BME280;5006;41.828;23.478;2023-02-21T00:56:20;90615.00;;;12.39;42.13
9935;BME280;5006;41.828;23.478;2023-02-21T00:57:43;90611.31;;;12.90;41.43
9935;BME280;5006;41.828;23.478;2023-02-21T00:59:06;90621.41;;;13.92;39.30
9935;BME280;5006;41.828;23.478;2023-02-21T01:00:29;90613.22;;;13.04;40.25
9935;BME280;5006;41.828;23.478;2023-02-21T01:01:52;90615.44;;;12.27;42.01
9935;BME280;5006;41.828;23.478;2023-02-21T01:03:15;90609.09;;;12.75;41.64
9935;BME280;5006;41.828;23.478;2023-02-21T01:04:38;90602.97;;;12.71;42.01
9935;BME280;5006;41.828;23.478;2023-02-21T01:06:01;90610.78;;;12.38;41.96
9935;BME280;5006;41.828;23.478;2023-02-21T01:07:24;90609.56;;;12.56;41.97
9935;BME280;5006;41.828;23.478;2023-02-21T01:08:47;90604.63;;;12.37;41.80
9935;BME280;5006;41.828;23.478;2023-02-21T01:10:10;90612.47;;;13.00;40.31
9935;BME280;5006;41.828;23.478;2023-02-21T01:11:35;90613.63;;;12.99;39.99
9935;BME280;5006;41.828;23.478;2023-02-21T01:12:58;90610.19;;;12.88;41.12
9935;BME280;5006;41.828;23.478;2023-02-21T01:14:21;90606.84;;;12.63;40.90
9935;BME280;5006;41.828;23.478;2023-02-21T01:15:44;90609.34;;;11.98;41.81
9935;BME280;5006;41.828;23.478;2023-02-21T01:17:08;90609.00;;;11.86;42.42
9935;BME280;5006;41.828;23.478;2023-02-21T01:18:31;90605.13;;;12.08;42.29
9935;BME280;5006;41.828;23.478;2023-02-21T01:19:54;90600.47;;;12.19;42.00
9935;BME280;5006;41.828;23.478;2023-02-21T01:21:18;90595.88;;;12.12;42.21
9935;BME280;5006;41.828;23.478;2023-02-21T01:22:41;90594.38;;;11.94;42.36
9935;BME280;5006;41.828;23.478;2023-02-21T01:24:05;90601.41;;;12.77;40.77
9935;BME280;5006;41.828;23.478;2023-02-21T01:25:29;90593.66;;;11.44;43.54
9935;BME280;5006;41.828;23.478;2023-02-21T01:26:53;90587.50;;;11.82;42.56
9935;BME280;5006;41.828;23.478;2023-02-21T01:28:17;90577.78;;;12.23;42.02
9935;BME280;5006;41.828;23.478;2023-02-21T01:29:40;90577.91;;;11.74;43.21
9935;BME280;5006;41.828;23.478;2023-02-21T01:31:04;90570.59;;;11.92;42.72
9935;BME280;5006;41.828;23.478;2023-02-21T01:32:27;90575.19;;;11.99;42.60
9935;BME280;5006;41.828;23.478;2023-02-21T01:33:50;90557.06;;;12.24;41.69
9935;BME280;5006;41.828;23.478;2023-02-21T01:35:13;90563.34;;;11.61;43.30
9935;BME280;5006;41.828;23.478;2023-02-21T01:36:39;90562.84;;;12.15;42.49
9935;BME280;5006;41.828;23.478;2023-02-21T01:38:02;90559.44;;;11.97;41.97
9935;BME280;5006;41.828;23.478;2023-02-21T01:39:26;90559.09;;;10.76;45.16
9935;BME280;5006;41.828;23.478;2023-02-21T01:40:49;90559.06;;;12.02;42.83
9935;BME280;5006;41.828;23.478;2023-02-21T01:42:14;90558.59;;;12.18;43.26
9935;BME280;5006;41.828;23.478;2023-02-21T01:43:37;90557.16;;;11.85;43.37
9935;BME280;5006;41.828;23.478;2023-02-21T01:47:08;90552.72;;;12.54;42.17
9935;BME280;5006;41.828;23.478;2023-02-21T01:48:33;90545.44;;;12.48;41.91
9935;BME280;5006;41.828;23.478;2023-02-21T01:50:00;90544.22;;;12.56;41.36
9935;BME280;5006;41.828;23.478;2023-02-21T01:51:29;90541.25;;;12.40;41.76
9935;BME280;5006;41.828;23.478;2023-02-21T01:52:53;90534.69;;;12.44;41.33
9935;BME280;5006;41.828;23.478;2023-02-21T01:54:18;90538.38;;;12.78;41.17
9935;BME280;5006;41.828;23.478;2023-02-21T01:55:43;90541.22;;;12.47;41.53
9935;BME280;5006;41.828;23.478;2023-02-21T01:57:06;90536.69;;;13.01;41.00
9935;BME280;5006;41.828;23.478;2023-02-21T01:58:32;90536.78;;;12.81;39.89
9935;BME280;5006;41.828;23.478;2023-02-21T01:59:56;90533.00;;;12.75;41.29
9935;BME280;5006;41.828;23.478;2023-02-21T02:01:28;90522.78;;;12.45;41.52
9935;BME280;5006;41.828;23.478;2023-02-21T02:02:56;90530.19;;;12.20;42.51
9935;BME280;5006;41.828;23.478;2023-02-21T02:04:19;90522.03;;;12.41;41.06
9935;BME280;5006;41.828;23.478;2023-02-21T02:05:46;90528.16;;;12.45;40.93
9935;BME280;5006;41.828;23.478;2023-02-21T02:07:10;90519.28;;;12.48;41.06
9935;BME280;5006;41.828;23.478;2023-02-21T02:08:34;90515.03;;;10.88;44.46
9935;BME280;5006;41.828;23.478;2023-02-21T02:09:57;90510.28;;;12.00;42.27
9935;BME280;5006;41.828;23.478;2023-02-21T02:11:54;90515.94;;;12.23;41.96
9935;BME280;5006;41.828;23.478;2023-02-21T02:13:45;90520.97;;;12.18;42.13
9935;BME280;5006;41.828;23.478;2023-02-21T02:15:09;90527.66;;;11.71;43.03
9935;BME280;5006;41.828;23.478;2023-02-21T02:16:21;90519.97;;;11.73;42.61
9935;BME280;5006;41.828;23.478;2023-02-21T02:17:42;90513.84;;;11.55;42.95
9935;BME280;5006;41.828;23.478;2023-02-21T02:19:10;90516.94;;;10.80;45.05
9935;BME280;5006;41.828;23.478;2023-02-21T02:20:52;90515.34;;;11.81;43.27
9935;BME280;5006;41.828;23.478;2023-02-21T02:22:30;90511.19;;;10.89;44.53
9935;BME280;5006;41.828;23.478;2023-02-21T02:24:10;90506.19;;;11.36;42.98
9935;BME280;5006;41.828;23.478;2023-02-21T02:25:36;90505.44;;;11.18;44.32
9935;BME280;5006;41.828;23.478;2023-02-21T02:28:48;90505.84;;;11.06;44.32
9935;BME280;5006;41.828;23.478;2023-02-21T02:30:27;90511.47;;;12.71;41.14
9935;BME280;5006;41.828;23.478;2023-02-21T02:33:59;90502.56;;;12.13;41.31
9935;BME280;5006;41.828;23.478;2023-02-21T02:35:13;90500.25;;;12.18;41.72
9935;BME280;5006;41.828;23.478;2023-02-21T02:36:24;90496.22;;;11.40;43.24
9935;BME280;5006;41.828;23.478;2023-02-21T02:37:34;90497.38;;;11.39;44.47
9935;BME280;5006;41.828;23.478;2023-02-21T02:39:04;90498.41;;;11.87;43.96
9935;BME280;5006;41.828;23.478;2023-02-21T02:40:21;90502.16;;;12.18;43.03
9935;BME280;5006;41.828;23.478;2023-02-21T02:41:40;90501.22;;;10.65;45.00
9935;BME280;5006;41.828;23.478;2023-02-21T02:42:59;90503.91;;;11.10;43.77
9935;BME280;5006;41.828;23.478;2023-02-21T02:44:12;90502.19;;;12.07;42.34
9935;BME280;5006;41.828;23.478;2023-02-21T02:45:25;90501.59;;;13.12;40.25
9935;BME280;5006;41.828;23.478;2023-02-21T02:46:33;90502.88;;;12.25;41.15
9935;BME280;5006;41.828;23.478;2023-02-21T02:47:43;90495.88;;;11.07;43.38
9935;BME280;5006;41.828;23.478;2023-02-21T02:48:52;90506.53;;;11.80;42.77
9935;BME280;5006;41.828;23.478;2023-02-21T02:50:00;90507.94;;;12.06;42.27
9935;BME280;5006;41.828;23.478;2023-02-21T02:51:11;90521.81;;;11.97;42.58
9935;BME280;5006;41.828;23.478;2023-02-21T02:52:17;90519.25;;;11.13;43.68
9935;BME280;5006;41.828;23.478;2023-02-21T02:53:25;90520.03;;;11.03;44.32
9935;BME280;5006;41.828;23.478;2023-02-21T02:54:30;90519.63;;;10.84;44.11
9935;BME280;5006;41.828;23.478;2023-02-21T02:55:40;90514.63;;;10.48;44.95
9935;BME280;5006;41.828;23.478;2023-02-21T02:56:47;90507.75;;;10.74;44.46
9935;BME280;5006;41.828;23.478;2023-02-21T02:57:53;90506.94;;;11.47;43.55
9935;BME280;5006;41.828;23.478;2023-02-21T02:59:01;90508.41;;;11.83;43.65
9935;BME280;5006;41.828;23.478;2023-02-21T03:00:11;90511.97;;;10.89;44.69
9935;BME280;5006;41.828;23.478;2023-02-21T03:01:33;90506.84;;;12.00;43.74
9935;BME280;5006;41.828;23.478;2023-02-21T03:02:51;90509.25;;;11.59;43.14
9935;BME280;5006;41.828;23.478;2023-02-21T03:04:17;90502.34;;;11.48;43.08
9935;BME280;5006;41.828;23.478;2023-02-21T03:05:46;90499.28;;;11.63;43.56
9935;BME280;5006;41.828;23.478;2023-02-21T03:07:04;90493.41;;;11.96;43.20
9935;BME280;5006;41.828;23.478;2023-02-21T03:08:17;90494.63;;;12.64;41.96
9935;BME280;5006;41.828;23.478;2023-02-21T03:09:32;90493.88;;;11.74;44.05
9935;BME280;5006;41.828;23.478;2023-02-21T03:10:46;90492.41;;;12.45;43.26
9935;BME280;5006;41.828;23.478;2023-02-21T03:12:00;90489.66;;;11.76;44.10
9935;BME280;5006;41.828;23.478;2023-02-21T03:13:11;90506.78;;;12.10;43.23
9935;BME280;5006;41.828;23.478;2023-02-21T03:14:25;90497.22;;;12.78;42.36
9935;BME280;5006;41.828;23.478;2023-02-21T03:15:35;90499.88;;;12.16;43.77
9935;BME280;5006;41.828;23.478;2023-02-21T03:16:46;90505.16;;;9.72;46.70
9935;BME280;5006;41.828;23.478;2023-02-21T03:17:59;90504.66;;;11.39;44.23
9935;BME280;5006;41.828;23.478;2023-02-21T03:19:10;90493.81;;;11.95;42.83
9935;BME280;5006;41.828;23.478;2023-02-21T03:20:19;90502.25;;;11.86;42.98
9935;BME280;5006;41.828;23.478;2023-02-21T03:21:27;90494.38;;;12.37;41.72
9935;BME280;5006;41.828;23.478;2023-02-21T03:22:34;90499.28;;;11.42;43.67
9935;BME280;5006;41.828;23.478;2023-02-21T03:23:41;90511.19;;;10.75;45.29
9935;BME280;5006;41.828;23.478;2023-02-21T03:24:49;90517.69;;;11.68;43.20
9935;BME280;5006;41.828;23.478;2023-02-21T03:25:56;90508.03;;;11.88;42.85
9935;BME280;5006;41.828;23.478;2023-02-21T03:27:05;90510.19;;;9.91;46.49
9935;BME280;5006;41.828;23.478;2023-02-21T03:28:32;90523.06;;;11.37;44.54
9935;BME280;5006;41.828;23.478;2023-02-21T03:29:39;90507.34;;;11.49;43.56
9935;BME280;5006;41.828;23.478;2023-02-21T03:30:44;90507.63;;;11.86;43.04
9935;BME280;5006;41.828;23.478;2023-02-21T03:31:55;90516.53;;;10.71;45.35
9935;BME280;5006;41.828;23.478;2023-02-21T03:33:02;90513.09;;;11.69;42.93
9935;BME280;5006;41.828;23.478;2023-02-21T03:34:08;90504.59;;;11.81;42.82
9935;BME280;5006;41.828;23.478;2023-02-21T03:35:13;90505.41;;;11.67;43.92
9935;BME280;5006;41.828;23.478;2023-02-21T03:36:20;90504.91;;;12.00;43.71
9935;BME280;5006;41.828;23.478;2023-02-21T03:37:30;90498.75;;;12.79;41.96
9935;BME280;5006;41.828;23.478;2023-02-21T03:38:38;90505.00;;;13.23;41.40
9935;BME280;5006;41.828;23.478;2023-02-21T03:39:43;90499.63;;;12.62;41.83
9935;BME280;5006;41.828;23.478;2023-02-21T03:40:49;90510.69;;;12.74;41.43
9935;BME280;5006;41.828;23.478;2023-02-21T03:41:54;90500.09;;;11.18;44.79
9935;BME280;5006;41.828;23.478;2023-02-21T03:43:01;90509.75;;;12.37;42.85
9935;BME280;5006;41.828;23.478;2023-02-21T03:44:10;90505.81;;;12.59;42.50
9935;BME280;5006;41.828;23.478;2023-02-21T03:45:16;90508.81;;;13.29;40.95
9935;BME280;5006;41.828;23.478;2023-02-21T03:46:25;90502.16;;;12.86;41.92
9935;BME280;5006;41.828;23.478;2023-02-21T03:47:31;90498.28;;;12.22;42.82
9935;BME280;5006;41.828;23.478;2023-02-21T03:48:36;90497.56;;;12.83;41.72
9935;BME280;5006;41.828;23.478;2023-02-21T03:49:52;90496.88;;;11.86;42.65
9935;BME280;5006;41.828;23.478;2023-02-21T03:50:57;90491.91;;;11.88;43.96
9935;BME280;5006;41.828;23.478;2023-02-21T03:52:08;90498.28;;;12.26;43.34
9935;BME280;5006;41.828;23.478;2023-02-21T03:53:16;90489.34;;;12.46;43.22
9935;BME280;5006;41.828;23.478;2023-02-21T03:54:24;90486.97;;;11.73;44.75
9935;BME280;5006;41.828;23.478;2023-02-21T03:55:33;90488.88;;;11.79;44.31
9935;BME280;5006;41.828;23.478;2023-02-21T03:56:43;90491.22;;;11.35;44.73
9935;BME280;5006;41.828;23.478;2023-02-21T03:58:02;90491.66;;;11.06;44.87
9935;BME280;5006;41.828;23.478;2023-02-21T03:59:10;90487.59;;;12.15;43.24
9935;BME280;5006;41.828;23.478;2023-02-21T04:00:15;90492.41;;;11.27;43.79
9935;BME280;5006;41.828;23.478;2023-02-21T04:01:22;90494.66;;;10.31;45.90
9935;BME280;5006;41.828;23.478;2023-02-21T04:02:26;90486.25;;;10.40;46.04
9935;BME280;5006;41.828;23.478;2023-02-21T04:03:32;90496.84;;;12.00;43.32
9935;BME280;5006;41.828;23.478;2023-02-21T04:04:41;90499.72;;;13.05;41.68
9935;BME280;5006;41.828;23.478;2023-02-21T04:05:51;90492.91;;;12.26;41.96
9935;BME280;5006;41.828;23.478;2023-02-21T04:06:57;90495.50;;;12.47;42.16
9935;BME280;5006;41.828;23.478;2023-02-21T04:08:02;90489.84;;;12.20;42.24
9935;BME280;5006;41.828;23.478;2023-02-21T04:09:08;90488.41;;;12.77;41.18
9935;BME280;5006;41.828;23.478;2023-02-21T04:10:15;90486.53;;;12.67;41.35
9935;BME280;5006;41.828;23.478;2023-02-21T04:11:23;90484.25;;;13.20;40.18
9935;BME280;5006;41.828;23.478;2023-02-21T04:12:30;90489.22;;;12.67;41.15
9935;BME280;5006;41.828;23.478;2023-02-21T04:13:35;90484.41;;;12.99;41.46
9935;BME280;5006;41.828;23.478;2023-02-21T04:14:40;90480.97;;;12.91;41.16
9935;BME280;5006;41.828;23.478;2023-02-21T04:15:46;90485.19;;;12.96;41.31
9935;BME280;5006;41.828;23.478;2023-02-21T04:16:51;90477.88;;;12.32;41.99
9935;BME280;5006;41.828;23.478;2023-02-21T04:17:57;90490.78;;;12.61;42.10
9935;BME280;5006;41.828;23.478;2023-02-21T04:19:03;90479.75;;;12.45;41.98
9935;BME280;5006;41.828;23.478;2023-02-21T04:20:09;90477.41;;;12.47;42.29
9935;BME280;5006;41.828;23.478;2023-02-21T04:21:20;90482.69;;;12.65;42.33
9935;BME280;5006;41.828;23.478;2023-02-21T04:22:27;90476.84;;;12.80;42.05
9935;BME280;5006;41.828;23.478;2023-02-21T04:23:32;90482.50;;;13.40;41.08
9935;BME280;5006;41.828;23.478;2023-02-21T04:24:38;90479.28;;;12.61;42.75
9935;BME280;5006;41.828;23.478;2023-02-21T04:25:44;90484.69;;;11.64;43.54
9935;BME280;5006;41.828;23.478;2023-02-21T04:26:54;90487.03;;;11.31;44.17
9935;BME280;5006;41.828;23.478;2023-02-21T04:28:00;90494.72;;;10.76;45.62
9935;BME280;5006;41.828;23.478;2023-02-21T04:29:06;90500.53;;;12.34;42.87
9935;BME280;5006;41.828;23.478;2023-02-21T04:30:11;90499.25;;;11.77;43.77
9935;BME280;5006;41.828;23.478;2023-02-21T04:31:18;90502.97;;;12.76;41.99
9935;BME280;5006;41.828;23.478;2023-02-21T04:32:23;90512.34;;;13.15;41.58
9935;BME280;5006;41.828;23.478;2023-02-21T04:33:28;90510.88;;;13.07;40.89
9935;BME280;5006;41.828;23.478;2023-02-21T04:34:33;90506.63;;;13.10;41.22
9935;BME280;5006;41.828;23.478;2023-02-21T04:35:39;90509.13;;;12.80;41.32
9935;BME280;5006;41.828;23.478;2023-02-21T04:36:51;90510.72;;;11.88;42.85
9935;BME280;5006;41.828;23.478;2023-02-21T04:37:57;90505.63;;;12.18;43.03
9935;BME280;5006;41.828;23.478;2023-02-21T04:39:03;90511.13;;;12.66;42.32
9935;BME280;5006;41.828;23.478;2023-02-21T04:40:09;90505.50;;;12.43;42.09
9935;BME280;5006;41.828;23.478;2023-02-21T04:41:16;90504.03;;;12.24;42.62
9935;BME280;5006;41.828;23.478;2023-02-21T04:42:21;90507.25;;;11.91;43.65
9935;BME280;5006;41.828;23.478;2023-02-21T04:43:26;90509.94;;;11.84;43.24
9935;BME280;5006;41.828;23.478;2023-02-21T04:44:32;90506.09;;;11.85;43.88
9935;BME280;5006;41.828;23.478;2023-02-21T04:45:37;90507.16;;;12.16;43.07
9935;BME280;5006;41.828;23.478;2023-02-21T04:46:43;90499.22;;;11.81;43.67
9935;BME280;5006;41.828;23.478;2023-02-21T04:47:48;90496.03;;;12.10;43.91
9935;BME280;5006;41.828;23.478;2023-02-21T04:48:53;90491.06;;;12.05;43.59
9935;BME280;5006;41.828;23.478;2023-02-21T04:49:58;90494.16;;;12.04;43.97
9935;BME280;5006;41.828;23.478;2023-02-21T04:51:04;90488.91;;;11.51;44.48
9935;BME280;5006;41.828;23.478;2023-02-21T04:52:10;90493.16;;;11.10;46.24
9935;BME280;5006;41.828;23.478;2023-02-21T04:53:15;90498.91;;;11.37;46.03
9935;BME280;5006;41.828;23.478;2023-02-21T04:54:20;90488.41;;;12.02;44.86
9935;BME280;5006;41.828;23.478;2023-02-21T04:55:26;90490.41;;;11.73;44.32
9935;BME280;5006;41.828;23.478;2023-02-21T04:56:32;90483.75;;;12.16;43.95
9935;BME280;5006;41.828;23.478;2023-02-21T04:57:38;90481.34;;;12.36;43.69
9935;BME280;5006;41.828;23.478;2023-02-21T04:58:43;90483.56;;;12.48;43.36
9935;BME280;5006;41.828;23.478;2023-02-21T04:59:48;90479.00;;;12.38;43.13
9935;BME280;5006;41.828;23.478;2023-02-21T05:01:00;90478.72;;;12.83;42.67
9935;BME280;5006;41.828;23.478;2023-02-21T05:02:04;90482.16;;;12.26;42.94
9935;BME280;5006;41.828;23.478;2023-02-21T05:03:11;90472.31;;;12.63;42.65
9935;BME280;5006;41.828;23.478;2023-02-21T05:04:16;90473.78;;;12.06;43.08
9935;BME280;5006;41.828;23.478;2023-02-21T05:05:22;90473.56;;;12.45;43.15
9935;BME280;5006;41.828;23.478;2023-02-21T05:06:27;90470.16;;;12.41;43.23
9935;BME280;5006;41.828;23.478;2023-02-21T05:07:34;90472.19;;;12.81;42.27
9935;BME280;5006;41.828;23.478;2023-02-21T05:08:38;90472.16;;;12.26;43.37
9935;BME280;5006;41.828;23.478;2023-02-21T05:09:44;90464.00;;;13.01;42.59
9935;BME280;5006;41.828;23.478;2023-02-21T05:10:49;90468.09;;;12.62;42.98
9935;BME280;5006;41.828;23.478;2023-02-21T05:11:56;90473.59;;;13.06;42.35
9935;BME280;5006;41.828;23.478;2023-02-21T05:13:01;90464.72;;;13.09;42.14
9935;BME280;5006;41.828;23.478;2023-02-21T05:14:06;90465.91;;;13.04;42.26
9935;BME280;5006;41.828;23.478;2023-02-21T05:15:12;90464.25;;;13.61;41.73
9935;BME280;5006;41.828;23.478;2023-02-21T05:16:18;90462.13;;;12.95;42.08
9935;BME280;5006;41.828;23.478;2023-02-21T05:17:23;90461.34;;;12.98;43.17
9935;BME280;5006;41.828;23.478;2023-02-21T05:18:31;90465.50;;;13.06;42.47
9935;BME280;5006;41.828;23.478;2023-02-21T05:19:37;90455.13;;;13.48;41.64
9935;BME280;5006;41.828;23.478;2023-02-21T05:20:43;90455.34;;;13.64;41.33
9935;BME280;5006;41.828;23.478;2023-02-21T05:21:48;90458.72;;;12.88;41.88
9935;BME280;5006;41.828;23.478;2023-02-21T05:22:54;90465.09;;;11.71;44.35
9935;BME280;5006;41.828;23.478;2023-02-21T05:23:59;90449.06;;;12.39;42.87
9935;BME280;5006;41.828;23.478;2023-02-21T05:25:06;90453.09;;;13.19;41.46
9935;BME280;5006;41.828;23.478;2023-02-21T05:26:12;90452.63;;;12.80;41.82
9935;BME280;5006;41.828;23.478;2023-02-21T05:27:20;90455.81;;;13.15;42.08
9935;BME280;5006;41.828;23.478;2023-02-21T05:28:24;90450.34;;;13.63;40.94
9935;BME280;5006;41.828;23.478;2023-02-21T05:29:30;90449.75;;;13.48;40.77
9935;BME280;5006;41.828;23.478;2023-02-21T05:30:35;90443.31;;;13.72;40.61
9935;BME280;5006;41.828;23.478;2023-02-21T05:31:40;90459.97;;;13.23;41.47
9935;BME280;5006;41.828;23.478;2023-02-21T05:32:45;90458.38;;;13.70;40.98
9935;BME280;5006;41.828;23.478;2023-02-21T05:33:50;90463.22;;;13.04;41.65
9935;BME280;5006;41.828;23.478;2023-02-21T05:34:56;90464.47;;;13.37;41.13
9935;BME280;5006;41.828;23.478;2023-02-21T05:36:02;90453.13;;;13.56;40.79
9935;BME280;5006;41.828;23.478;2023-02-21T05:37:08;90456.09;;;13.65;40.75
9935;BME280;5006;41.828;23.478;2023-02-21T05:38:12;90467.28;;;14.00;40.13
9935;BME280;5006;41.828;23.478;2023-02-21T05:39:18;90463.00;;;14.03;40.25
9935;BME280;5006;41.828;23.478;2023-02-21T05:40:24;90468.63;;;14.19;40.14
9935;BME280;5006;41.828;23.478;2023-02-21T05:41:29;90463.09;;;13.96;40.45
9935;BME280;5006;41.828;23.478;2023-02-21T05:42:36;90466.94;;;13.95;40.02
9935;BME280;5006;41.828;23.478;2023-02-21T05:43:43;90463.09;;;13.96;40.14
9935;BME280;5006;41.828;23.478;2023-02-21T05:44:48;90467.47;;;13.46;41.28
9935;BME280;5006;41.828;23.478;2023-02-21T05:45:53;90470.56;;;13.00;41.68
9935;BME280;5006;41.828;23.478;2023-02-21T05:46:59;90474.38;;;13.03;41.81
9935;BME280;5006;41.828;23.478;2023-02-21T05:48:06;90474.63;;;12.61;42.19
9935;BME280;5006;41.828;23.478;2023-02-21T05:49:11;90470.78;;;12.62;42.23
9935;BME280;5006;41.828;23.478;2023-02-21T05:50:16;90468.06;;;12.69;42.90
9935;BME280;5006;41.828;23.478;2023-02-21T05:51:22;90469.16;;;12.75;42.92
9935;BME280;5006;41.828;23.478;2023-02-21T05:52:27;90471.56;;;12.63;42.44
9935;BME280;5006;41.828;23.478;2023-02-21T05:53:33;90478.97;;;13.50;41.88
9935;BME280;5006;41.828;23.478;2023-02-21T05:54:38;90471.25;;;13.89;40.66
9935;BME280;5006;41.828;23.478;2023-02-21T05:55:44;90470.22;;;12.95;42.12
9935;BME280;5006;41.828;23.478;2023-02-21T05:56:50;90475.78;;;12.67;42.20
9935;BME280;5006;41.828;23.478;2023-02-21T05:57:57;90480.75;;;11.97;43.38
9935;BME280;5006;41.828;23.478;2023-02-21T05:59:02;90475.41;;;11.86;43.52
9935;BME280;5006;41.828;23.478;2023-02-21T06:00:14;90479.56;;;12.70;42.13
9935;BME280;5006;41.828;23.478;2023-02-21T06:01:19;90479.38;;;12.40;43.12
9935;BME280;5006;41.828;23.478;2023-02-21T06:02:25;90477.59;;;13.31;41.70
9935;BME280;5006;41.828;23.478;2023-02-21T06:03:31;90476.75;;;13.38;41.18
9935;BME280;5006;41.828;23.478;2023-02-21T06:04:36;90473.84;;;13.22;41.34
9935;BME280;5006;41.828;23.478;2023-02-21T06:05:42;90471.66;;;13.87;40.79
9935;BME280;5006;41.828;23.478;2023-02-21T06:06:46;90470.31;;;13.28;41.76
9935;BME280;5006;41.828;23.478;2023-02-21T06:07:52;90478.66;;;13.81;40.97
9935;BME280;5006;41.828;23.478;2023-02-21T06:08:56;90476.28;;;13.87;41.01
9935;BME280;5006;41.828;23.478;2023-02-21T06:10:03;90472.16;;;14.12;40.65
9935;BME280;5006;41.828;23.478;2023-02-21T06:11:08;90478.41;;;13.69;40.84
9935;BME280;5006;41.828;23.478;2023-02-21T06:12:14;90490.69;;;13.33;40.82
9935;BME280;5006;41.828;23.478;2023-02-21T06:13:21;90483.72;;;13.76;40.84
9935;BME280;5006;41.828;23.478;2023-02-21T06:14:26;90486.19;;;13.60;41.49
9935;BME280;5006;41.828;23.478;2023-02-21T06:15:32;90486.56;;;13.95;40.80
9935;BME280;5006;41.828;23.478;2023-02-21T06:16:37;90483.75;;;13.32;41.48
9935;BME280;5006;41.828;23.478;2023-02-21T06:17:43;90478.28;;;12.98;42.32
9935;BME280;5006;41.828;23.478;2023-02-21T06:18:49;90489.38;;;13.48;40.80
9935;BME280;5006;41.828;23.478;2023-02-21T06:19:55;90488.09;;;13.96;40.51
9935;BME280;5006;41.828;23.478;2023-02-21T06:21:00;90479.75;;;14.24;40.06
9935;BME280;5006;41.828;23.478;2023-02-21T06:22:06;90484.66;;;14.59;39.60
9935;BME280;5006;41.828;23.478;2023-02-21T06:23:10;90487.91;;;14.14;40.00
9935;BME280;5006;41.828;23.478;2023-02-21T06:24:16;90490.75;;;12.68;41.35
9935;BME280;5006;41.828;23.478;2023-02-21T06:25:22;90486.34;;;12.91;41.27
9935;BME280;5006;41.828;23.478;2023-02-21T06:26:28;90479.97;;;14.00;40.17
9935;BME280;5006;41.828;23.478;2023-02-21T06:27:34;90481.88;;;14.36;39.19
9935;BME280;5006;41.828;23.478;2023-02-21T06:28:41;90479.31;;;14.56;39.23
9935;BME280;5006;41.828;23.478;2023-02-21T06:29:46;90486.22;;;13.16;41.19
9935;BME280;5006;41.828;23.478;2023-02-21T06:30:51;90485.75;;;13.24;41.33
9935;BME280;5006;41.828;23.478;2023-02-21T06:31:58;90489.16;;;13.32;41.04
9935;BME280;5006;41.828;23.478;2023-02-21T06:33:04;90480.69;;;14.04;39.91
9935;BME280;5006;41.828;23.478;2023-02-21T06:34:09;90482.47;;;14.21;40.27
9935;BME280;5006;41.828;23.478;2023-02-21T06:35:15;90479.81;;;14.17;40.03
9935;BME280;5006;41.828;23.478;2023-02-21T06:36:23;90474.09;;;14.72;38.77
9935;BME280;5006;41.828;23.478;2023-02-21T06:37:29;90477.69;;;14.62;38.99
9935;BME280;5006;41.828;23.478;2023-02-21T06:38:34;90469.91;;;15.20;38.37